createdAt,value
2019-05-30T00:01:20.362Z,17.00
2019-05-30T00:03:50.802Z,18.60
2019-05-30T00:06:21.676Z,17.73
2019-05-30T00:08:54.340Z,17.17
2019-05-30T00:11:25.130Z,20.90
2019-05-30T00:13:56.669Z,16.40
2019-05-30T00:16:28.736Z,17.53
2019-05-30T00:19:00.795Z,18.70
2019-05-30T00:21:32.140Z,14.33
2019-05-30T00:24:04.197Z,14.90
2019-05-30T00:26:35.095Z,16.40
2019-05-30T00:29:06.692Z,19.77
2019-05-30T00:31:37.588Z,16.93
2019-05-30T00:34:08.729Z,24.03
2019-05-30T00:36:39.543Z,21.60
2019-05-30T00:39:10.339Z,17.17
2019-05-30T00:41:41.010Z,14.33
2019-05-30T00:44:11.975Z,20.80
2019-05-30T00:46:42.928Z,17.23
2019-05-30T00:49:13.425Z,23.93
2019-05-30T00:51:44.214Z,23.90
2019-05-30T00:54:15.523Z,15.90
2019-05-30T00:56:47.830Z,16.43
2019-05-30T00:59:18.654Z,21.90
2019-05-30T01:01:49.266Z,21.53
2019-05-30T01:04:19.946Z,18.30
2019-05-30T01:06:50.650Z,22.87
2019-05-30T01:09:21.366Z,23.70
2019-05-30T01:11:51.926Z,22.00
2019-05-30T01:14:22.630Z,23.70
2019-05-30T01:16:54.073Z,20.07
2019-05-30T01:19:24.708Z,22.83
2019-05-30T01:21:57.057Z,22.63
2019-05-30T01:24:28.141Z,30.67
2019-05-30T01:27:01.321Z,22.03
2019-05-30T01:29:32.617Z,18.90
2019-05-30T01:32:22.186Z,19.47
2019-05-30T01:34:52.962Z,20.23
2019-05-30T01:37:24.702Z,22.30
2019-05-30T01:39:55.492Z,25.07
2019-05-30T01:42:26.410Z,27.57
2019-05-30T01:44:58.216Z,20.03
2019-05-30T01:47:29.250Z,21.97
2019-05-30T01:50:00.397Z,21.53
2019-05-30T01:52:32.530Z,21.90
2019-05-30T01:55:04.620Z,27.33
2019-05-30T01:57:35.378Z,23.23
2019-05-30T02:00:18.786Z,19.13
2019-05-30T02:02:39.756Z,22.70
2019-05-30T02:05:13.353Z,17.27
2019-05-30T02:07:45.129Z,24.27
2019-05-30T02:10:16.282Z,18.10
2019-05-30T02:12:47.131Z,20.07
2019-05-30T02:15:18.655Z,19.67
2019-05-30T02:17:49.559Z,24.93
2019-05-30T02:20:20.661Z,20.40
2019-05-30T02:22:51.298Z,16.30
2019-05-30T02:25:23.807Z,15.93
2019-05-30T02:27:54.720Z,17.07
2019-05-30T02:30:25.513Z,21.97
2019-05-30T02:32:57.158Z,15.30
2019-05-30T02:35:27.994Z,11.90
2019-05-30T02:37:58.673Z,14.37
2019-05-30T02:40:29.703Z,15.70
2019-05-30T02:43:01.213Z,10.33
2019-05-30T02:45:32.478Z,12.40
2019-05-30T02:48:03.898Z,11.43
2019-05-30T02:50:36.583Z,13.50
2019-05-30T02:53:08.752Z,15.17
2019-05-30T02:55:40.275Z,13.70
2019-05-30T02:58:12.980Z,14.70
2019-05-30T03:00:44.370Z,14.80
2019-05-30T03:03:15.157Z,12.03
2019-05-30T03:05:47.040Z,10.97
2019-05-30T03:08:18.421Z,12.43
2019-05-30T03:10:50.742Z,10.77
2019-05-30T03:13:22.936Z,10.30
2019-05-30T03:15:55.241Z,12.57
2019-05-30T03:18:25.927Z,8.00
2019-05-30T03:20:56.525Z,10.17
2019-05-30T03:23:27.425Z,6.97
2019-05-30T03:25:58.339Z,7.10
2019-05-30T03:28:29.235Z,8.20
2019-05-30T03:31:04.372Z,6.30
2019-05-30T03:33:40.243Z,6.80
2019-05-30T03:36:14.347Z,35.43
2019-05-30T03:38:41.055Z,10.33
2019-05-30T03:41:12.234Z,11.60
2019-05-30T03:43:45.651Z,7.07
2019-05-30T03:46:20.203Z,6.67
2019-05-30T03:48:54.334Z,6.97
2019-05-30T03:51:27.104Z,10.40
2019-05-30T03:53:57.670Z,6.63
2019-05-30T03:56:39.453Z,8.00
2019-05-30T03:59:41.345Z,10.50
2019-05-30T04:02:57.286Z,14.50
2019-05-30T04:05:32.169Z,11.33
2019-05-30T04:08:07.087Z,6.60
2019-05-30T04:10:41.533Z,6.60
2019-05-30T04:13:33.001Z,10.33
2019-05-30T04:16:03.399Z,8.77
2019-05-30T04:18:33.737Z,6.23
2019-05-30T04:21:04.179Z,5.87
2019-05-30T04:23:35.193Z,6.70
2019-05-30T04:26:07.414Z,8.10
2019-05-30T04:28:38.110Z,6.07
2019-05-30T04:31:09.941Z,10.43
2019-05-30T04:33:40.865Z,6.03
2019-05-30T04:36:12.492Z,5.97
2019-05-30T04:38:43.066Z,8.87
2019-05-30T04:41:15.706Z,5.80
2019-05-30T04:43:45.895Z,8.63
2019-05-30T04:46:18.632Z,5.77
2019-05-30T04:48:48.463Z,9.60
2019-05-30T04:51:21.223Z,8.43
2019-05-30T04:53:51.630Z,11.60
2019-05-30T04:56:23.174Z,10.00
2019-05-30T04:58:53.729Z,11.47
2019-05-30T05:01:24.445Z,7.80
2019-05-30T05:03:56.328Z,6.57
2019-05-30T05:06:27.140Z,6.30
2019-05-30T05:08:57.804Z,6.90
2019-05-30T05:11:28.429Z,6.60
2019-05-30T05:13:59.267Z,6.00
2019-05-30T05:16:35.490Z,5.80
2019-05-30T05:19:03.973Z,6.07
2019-05-30T05:21:34.821Z,6.13
2019-05-30T05:24:06.917Z,5.63
2019-05-30T05:26:37.831Z,6.43
2019-05-30T05:29:08.767Z,5.30
2019-05-30T05:31:59.702Z,6.00
2019-05-30T05:34:30.264Z,5.37
2019-05-30T05:37:01.250Z,18.90
2019-05-30T05:39:32.727Z,6.40
2019-05-30T05:42:03.400Z,6.30
2019-05-30T05:44:35.441Z,9.50
2019-05-30T05:47:06.590Z,7.90
2019-05-30T05:49:37.195Z,6.40
2019-05-30T05:52:11.828Z,12.90
2019-05-30T05:54:41.132Z,6.07
2019-05-30T05:57:12.530Z,6.10
2019-05-30T05:59:43.486Z,5.80
2019-05-30T06:02:14.299Z,5.40
2019-05-30T06:04:45.846Z,4.95
2019-05-30T06:07:18.225Z,10.63
2019-05-30T06:09:52.354Z,4.95
2019-05-30T06:12:55.716Z,4.97
2019-05-30T06:15:27.355Z,4.90
2019-05-30T06:18:15.410Z,4.87
2019-05-30T06:20:48.104Z,4.75
2019-05-30T06:23:25.726Z,5.80
2019-05-30T06:26:20.392Z,5.28
2019-05-30T06:29:03.155Z,5.45
2019-05-30T06:31:52.832Z,5.00
2019-05-30T06:34:46.906Z,11.28
2019-05-30T06:37:19.253Z,4.67
2019-05-30T06:39:51.389Z,10.68
2019-05-30T06:42:22.288Z,4.83
2019-05-30T06:44:59.340Z,7.20
2019-05-30T06:47:30.562Z,6.92
2019-05-30T06:50:01.497Z,9.55
2019-05-30T06:52:32.377Z,6.00
2019-05-30T06:55:05.783Z,5.22
2019-05-30T06:57:53.963Z,6.37
2019-05-30T07:00:26.495Z,4.78
2019-05-30T07:03:01.193Z,4.62
2019-05-30T07:05:34.284Z,4.25
2019-05-30T07:08:05.742Z,4.78
2019-05-30T07:10:36.528Z,4.78
2019-05-30T07:13:07.594Z,5.37
2019-05-30T07:15:42.509Z,12.15
2019-05-30T07:18:13.311Z,5.60
2019-05-30T07:20:55.045Z,5.78
2019-05-30T07:23:39.464Z,5.05
2019-05-30T07:26:09.947Z,6.15
2019-05-30T07:28:40.366Z,9.90
2019-05-30T07:31:11.107Z,6.40
2019-05-30T07:33:41.793Z,6.80
2019-05-30T07:36:13.990Z,7.23
2019-05-30T07:38:44.825Z,7.60
2019-05-30T07:41:17.480Z,10.97
2019-05-30T07:43:48.185Z,12.30
2019-05-30T07:46:18.886Z,6.83
2019-05-30T07:48:49.692Z,6.70
2019-05-30T07:51:20.415Z,7.13
2019-05-30T07:54:00.970Z,6.50
2019-05-30T07:56:31.417Z,7.20
2019-05-30T07:59:01.929Z,7.27
2019-05-30T08:01:32.633Z,10.53
2019-05-30T08:04:04.879Z,8.10
2019-05-30T08:06:59.469Z,8.27
2019-05-30T08:09:32.932Z,8.83
2019-05-30T08:12:04.716Z,8.57
2019-05-30T08:14:35.370Z,9.00
2019-05-30T08:17:06.573Z,9.60
2019-05-30T08:20:07.745Z,8.77
2019-05-30T08:22:55.988Z,8.63
2019-05-30T08:25:39.988Z,8.60
2019-05-30T08:28:18.862Z,9.63
2019-05-30T08:30:52.704Z,8.27
2019-05-30T08:33:23.499Z,9.17
2019-05-30T08:35:53.863Z,9.80
2019-05-30T08:38:24.300Z,8.80
2019-05-30T08:40:54.822Z,8.53
2019-05-30T08:43:25.258Z,8.00
2019-05-30T08:45:56.122Z,8.83
2019-05-30T08:48:26.504Z,11.60
2019-05-30T08:50:56.862Z,8.57
2019-05-30T08:53:27.312Z,12.90
2019-05-30T08:55:58.007Z,8.03
2019-05-30T08:58:28.334Z,8.90
2019-05-30T09:00:58.780Z,13.37
2019-05-30T09:03:29.574Z,12.07
2019-05-30T09:06:04.215Z,14.97
2019-05-30T09:08:32.401Z,10.07
2019-05-30T09:11:02.844Z,23.50
2019-05-30T09:13:33.701Z,10.33
2019-05-30T09:16:04.878Z,10.03
2019-05-30T09:18:37.969Z,7.70
2019-05-30T09:21:08.684Z,9.83
2019-05-30T09:23:41.017Z,8.33
2019-05-30T09:26:12.288Z,17.50
2019-05-30T09:28:44.238Z,8.70
2019-05-30T09:31:14.933Z,8.03
2019-05-30T09:33:46.649Z,8.90
2019-05-30T09:36:17.476Z,14.60
2019-05-30T09:38:49.641Z,8.20
2019-05-30T09:41:21.181Z,8.53
2019-05-30T09:43:51.727Z,10.40
2019-05-30T09:46:22.719Z,8.50
2019-05-30T09:48:53.719Z,9.00
2019-05-30T09:51:24.523Z,8.00
2019-05-30T09:53:55.391Z,7.63
2019-05-30T09:56:26.259Z,10.17
2019-05-30T09:58:56.925Z,8.23
2019-05-30T10:01:27.700Z,8.70
2019-05-30T10:03:58.663Z,8.50
2019-05-30T10:06:30.276Z,8.30
2019-05-30T10:09:01.265Z,8.67
2019-05-30T10:11:33.112Z,8.90
2019-05-30T10:14:04.158Z,8.87
2019-05-30T10:16:37.392Z,13.93
2019-05-30T10:19:08.493Z,8.33
2019-05-30T10:21:39.326Z,9.80
2019-05-30T10:24:11.587Z,7.80
2019-05-30T10:26:43.307Z,8.20
2019-05-30T10:29:14.002Z,7.93
2019-05-30T10:31:46.391Z,13.40
2019-05-30T10:34:17.342Z,7.70
2019-05-30T10:36:49.190Z,8.20
2019-05-30T10:39:20.648Z,10.23
2019-05-30T10:41:51.272Z,7.63
2019-05-30T10:44:23.116Z,8.27
2019-05-30T10:46:54.585Z,7.63
2019-05-30T10:49:34.127Z,7.00
2019-05-30T10:51:59.446Z,13.33
2019-05-30T10:54:31.660Z,7.40
2019-05-30T10:57:02.509Z,7.53
2019-05-30T10:59:33.220Z,7.17
2019-05-30T11:02:04.071Z,8.40
2019-05-30T11:04:34.969Z,8.33
2019-05-30T11:07:14.485Z,8.23
2019-05-30T11:09:48.749Z,7.60
2019-05-30T11:12:19.470Z,8.37
2019-05-30T11:14:51.574Z,7.37
2019-05-30T11:17:22.531Z,8.73
2019-05-30T11:19:54.039Z,9.10
2019-05-30T11:22:26.921Z,8.23
2019-05-30T11:24:59.389Z,19.97
2019-05-30T11:27:30.339Z,9.27
2019-05-30T11:30:01.356Z,9.53
2019-05-30T11:32:32.874Z,7.87
2019-05-30T11:35:03.732Z,9.17
2019-05-30T11:37:37.661Z,7.97
2019-05-30T11:40:10.358Z,31.00
2019-05-30T11:42:41.273Z,8.30
2019-05-30T11:45:12.372Z,8.57
2019-05-30T11:47:43.437Z,8.10
2019-05-30T11:50:16.314Z,8.00
2019-05-30T11:52:49.814Z,10.53
2019-05-30T11:55:21.671Z,8.80
2019-05-30T11:57:52.379Z,7.77
2019-05-30T12:00:23.665Z,8.07
2019-05-30T12:02:54.480Z,7.13
2019-05-30T12:05:25.597Z,8.40
2019-05-30T12:07:56.994Z,8.20
2019-05-30T12:10:29.070Z,8.60
2019-05-30T12:12:59.851Z,8.27
2019-05-30T12:15:30.951Z,8.03
2019-05-30T12:18:02.456Z,11.70
2019-05-30T12:20:33.336Z,9.37
2019-05-30T12:23:03.982Z,9.53
2019-05-30T12:25:34.931Z,7.63
2019-05-30T12:30:54.388Z,14.13
2019-05-30T12:33:11.934Z,7.57
2019-05-30T12:35:42.894Z,7.90
2019-05-30T12:38:14.783Z,7.33
2019-05-30T12:40:45.624Z,7.13
2019-05-30T12:43:16.522Z,7.50
2019-05-30T12:45:48.716Z,8.10
2019-05-30T12:48:19.764Z,7.73
2019-05-30T12:50:50.733Z,11.17
2019-05-30T12:53:21.258Z,7.93
2019-05-30T12:55:54.321Z,7.93
2019-05-30T12:58:25.243Z,7.10
2019-05-30T13:00:56.680Z,7.77
2019-05-30T13:03:27.945Z,10.43
2019-05-30T13:05:59.190Z,8.83
2019-05-30T13:08:30.262Z,7.50
2019-05-30T13:11:01.757Z,6.40
2019-05-30T13:13:32.744Z,7.40
2019-05-30T13:16:07.160Z,8.30
2019-05-30T13:18:36.777Z,7.70
2019-05-30T13:21:08.933Z,8.73
2019-05-30T20:36:20.006Z,6.90
2019-05-30T20:39:15.040Z,10.10
2019-05-30T20:41:47.712Z,8.30
2019-05-30T20:44:18.973Z,6.60
2019-05-30T20:46:51.309Z,6.87
2019-05-30T20:49:22.713Z,6.60
2019-05-30T20:51:53.511Z,6.73
2019-05-30T20:54:26.010Z,6.60
2019-05-30T20:56:57.447Z,7.40
2019-05-30T20:59:31.502Z,6.27
2019-05-30T21:02:05.066Z,7.07
2019-05-30T21:05:04.679Z,7.37
2019-05-30T21:07:37.773Z,6.73
2019-05-30T21:10:08.869Z,5.90
2019-05-30T21:12:44.439Z,6.20
2019-05-30T21:15:15.962Z,6.13
2019-05-30T21:17:48.155Z,6.90
2019-05-30T21:20:23.076Z,6.17
2019-05-30T21:22:53.875Z,7.20
2019-05-30T21:25:24.618Z,8.27
2019-05-30T21:27:55.541Z,10.00
2019-05-30T21:30:27.013Z,6.53
2019-05-30T21:32:59.108Z,12.17
2019-05-30T21:35:37.572Z,7.83
2019-05-30T21:38:08.635Z,7.40
2019-05-30T21:40:44.453Z,8.30
2019-05-30T21:43:15.599Z,8.43
2019-05-30T21:45:48.962Z,7.57
2019-05-30T21:48:20.054Z,8.37
2019-05-30T21:50:51.221Z,7.03
2019-05-30T21:53:22.052Z,7.50
2019-05-30T21:55:55.959Z,9.20
2019-05-30T21:58:28.830Z,9.50
2019-05-30T22:01:36.611Z,11.60
2019-05-30T22:04:08.552Z,9.00
2019-05-30T22:06:40.745Z,8.23
2019-05-30T22:09:12.776Z,8.10
2019-05-30T22:11:43.757Z,7.83
2019-05-30T22:14:16.587Z,8.33
2019-05-30T22:16:48.032Z,7.90
2019-05-30T22:19:18.697Z,9.90
2019-05-30T22:21:50.246Z,7.83
2019-05-30T22:24:22.412Z,7.80
2019-05-30T22:26:53.275Z,9.00
2019-05-30T22:29:25.275Z,8.73
2019-05-30T22:31:56.697Z,8.10
2019-05-30T22:34:27.541Z,10.57
2019-05-30T22:36:58.093Z,7.30
2019-05-30T22:39:28.898Z,11.13
2019-05-30T22:41:59.448Z,7.67
2019-05-30T22:44:30.179Z,9.10
2019-05-30T22:47:01.128Z,9.20
2019-05-30T22:49:31.973Z,10.50
2019-05-30T22:52:04.434Z,11.50
2019-05-30T22:54:36.528Z,9.73
2019-05-30T22:57:07.691Z,9.50
2019-05-30T22:59:38.394Z,11.27
2019-05-30T23:02:10.071Z,7.70
2019-05-30T23:04:40.682Z,11.30
2019-05-30T23:07:12.404Z,9.70
2019-05-30T23:09:43.598Z,7.73
2019-05-30T23:12:14.811Z,11.03
2019-05-30T23:14:46.717Z,9.57
2019-05-30T23:17:18.065Z,8.00
2019-05-30T23:19:48.863Z,8.73
2019-05-30T23:22:19.894Z,7.37
2019-05-30T23:24:52.276Z,9.60
2019-05-30T23:27:23.646Z,8.67
2019-05-30T23:29:54.471Z,7.93
2019-05-30T23:32:25.339Z,8.20
2019-05-30T23:34:56.477Z,8.30
2019-05-30T23:37:27.558Z,8.63
2019-05-30T23:39:58.998Z,8.20
2019-05-30T23:42:29.441Z,7.70
2019-05-30T23:45:00.164Z,9.20
2019-05-30T23:47:31.033Z,7.77
2019-05-30T23:50:01.825Z,9.10
2019-05-30T23:52:32.765Z,7.77
2019-05-30T23:55:03.455Z,7.00
2019-05-30T23:57:34.252Z,6.23
